Current Conditions
Partly Cloudy
Conditions



Pressure
1017.92 (hPa) - 30.06 (inHG)
Visibility

10.0 (km) - 6.2 (miles)
   Temperature
5  °C
41°F
3  °C
Dewpoint
87  %
 Humidity
   Wind Speed
7.6  m/s
17  mph
27  km/h
15  kts
   Wind Direction
 200°
South South
West
   Airport Data
EKRN
Location Bornholm 15 km (9.32 mi)
Metar :EKRN 102020Z AUTO 20015KT 9999 FEW014/// 05/03 Q1018
Tue 10th December 21:20 pm
   Raw Metar Info
Raw METAR is the most common format in the world for the transmission of observational weather data. It is highly standardized through the International Civil Aviation Organization (ICAO), which allows it to be understood throughout most of the world.
   API Info
Data Provided by
https://www.checkwx.com/weather/EKRN
   © Info
CSS/SVG/PHP scripts were developed by weather34.com for use in the weather34 template © 2015-2019

Guide Info provided by Metar-Wikipedia